Time;durP1;ratioP1;P1;durP2;ratioP2;P2;SDS_P1;SDS_P2;PMS_P1;PMS_P2;Temp;Humidity;BMP_temperature;BMP_pressure;BME280_temperature;BME280_humidity;BME280_pressure;Samples;Min_cycle;Max_cycle;Signal;HPM_P1;HPM_P2
2022/05/12 00:01:51;;;;;;;10.35;4.10;;;;;;;18.09;61.95;100462.50;5111511;28;20051;-67
2022/05/12 00:04:18;;;;;;;9.38;4.00;;;;;;;17.95;61.91;100442.91;5108619;28;20047;-67
2022/05/12 00:06:45;;;;;;;8.82;3.88;;;;;;;17.93;61.79;100438.75;5107326;28;20082;-67
2022/05/12 00:09:11;;;;;;;10.80;4.18;;;;;;;18.00;61.95;100454.00;5107844;28;20055;-69
2022/05/12 00:11:38;;;;;;;11.55;3.80;;;;;;;17.68;61.84;100398.84;5140641;27;20520;-67
2022/05/12 00:14:05;;;;;;;9.68;3.90;;;;;;;17.98;61.61;100455.50;5111624;28;20046;-67
2022/05/12 00:16:32;;;;;;;13.45;4.50;;;;;;;17.82;61.81;100431.78;5110848;28;20480;-67
2022/05/12 00:18:59;;;;;;;10.38;4.43;;;;;;;17.83;61.65;100439.06;5097953;28;20127;-68
2022/05/12 00:21:26;;;;;;;8.57;4.32;;;;;;;17.91;61.73;100452.34;5107344;27;20193;-67
2022/05/12 00:23:56;;;;;;;10.18;4.57;;;;;;;17.88;61.83;100433.25;5111616;28;20139;-68
2022/05/12 00:26:31;;;;;;;12.65;3.75;;;;;;;17.93;61.56;100436.75;5098841;28;20052;-68
2022/05/12 00:28:59;;;;;;;13.73;4.53;;;;;;;17.97;61.91;100443.38;5109583;28;20039;-69
2022/05/12 00:31:28;;;;;;;10.10;3.97;;;;;;;17.91;61.75;100429.75;5109188;28;20411;-69
2022/05/12 00:33:55;;;;;;;9.43;4.43;;;;;;;18.02;61.60;100442.41;5111195;28;20043;-67
2022/05/12 00:36:22;;;;;;;18.60;4.60;;;;;;;17.99;61.24;100437.41;5110338;28;20050;-67
2022/05/12 00:38:49;;;;;;;11.95;4.15;;;;;;;18.00;61.63;100433.41;5110263;28;20130;-67
2022/05/12 00:41:16;;;;;;;8.68;4.57;;;;;;;17.94;61.78;100420.63;5111124;28;20090;-67
2022/05/12 00:43:55;;;;;;;13.13;4.03;;;;;;;18.00;61.53;100424.94;5111877;27;20409;-67
2022/05/12 00:46:28;;;;;;;10.35;4.40;;;;;;;18.00;61.74;100428.59;5102297;28;20138;-67
2022/05/12 00:49:09;;;;;;;13.52;4.75;;;;;;;17.91;61.73;100407.16;5112030;28;20071;-67
2022/05/12 00:52:06;;;;;;;12.98;4.25;;;;;;;17.92;61.37;100415.31;5094995;28;20052;-69
2022/05/12 00:55:02;;;;;;;8.30;2.97;;;;;;;17.92;61.35;100408.84;5105267;28;20462;-67
2022/05/12 00:57:37;;;;;;;8.88;4.43;;;;;;;17.85;61.83;100403.69;5108164;28;20052;-67
2022/05/12 01:00:06;;;;;;;9.93;4.05;;;;;;;17.68;61.86;100376.25;5109911;28;20187;-67
2022/05/12 01:02:36;;;;;;;6.50;3.85;;;;;;;17.77;62.30;100408.16;5112977;28;20055;-67
2022/05/12 01:05:03;;;;;;;9.88;3.83;;;;;;;17.79;61.78;100407.00;5110667;28;20101;-67
2022/05/12 01:07:31;;;;;;;12.15;4.72;;;;;;;17.82;61.76;100414.81;5109648;28;20576;-66
2022/05/12 01:10:00;;;;;;;8.52;3.85;;;;;;;17.75;61.92;100387.88;5110549;28;20086;-66
2022/05/12 01:12:28;;;;;;;7.90;3.85;;;;;;;17.79;61.66;100390.88;5095806;28;20071;-67
2022/05/12 01:14:55;;;;;;;16.75;4.55;;;;;;;17.60;61.79;100379.88;5103716;28;20060;-65
2022/05/12 01:17:23;;;;;;;12.05;4.18;;;;;;;17.80;61.95;100392.53;5110014;28;20082;-68
2022/05/12 01:19:51;;;;;;;14.23;5.13;;;;;;;17.76;62.06;100391.56;5102547;28;20463;-67
2022/05/12 01:22:32;;;;;;;12.73;5.38;;;;;;;17.75;62.03;100378.56;5109946;28;20047;-67
2022/05/12 01:25:00;;;;;;;12.77;4.53;;;;;;;17.78;62.30;100383.59;5106773;28;20071;-67
2022/05/12 01:27:29;;;;;;;10.07;4.60;;;;;;;17.73;62.31;100378.88;5107976;28;20130;-67
2022/05/12 01:29:58;;;;;;;15.57;5.03;;;;;;;17.72;61.97;100365.94;5112273;28;20116;-67
2022/05/12 01:32:28;;;;;;;11.43;4.93;;;;;;;17.89;62.39;100392.53;5112867;28;20086;-67
2022/05/12 01:34:55;;;;;;;9.63;4.10;;;;;;;17.84;61.91;100385.06;5109117;28;20090;-67
2022/05/12 01:37:24;;;;;;;17.20;4.53;;;;;;;17.93;62.30;100393.53;5111673;28;20553;-67
2022/05/12 01:39:51;;;;;;;21.67;5.03;;;;;;;17.93;62.12;100393.53;5112643;28;20054;-68
2022/05/12 01:42:18;;;;;;;15.60;5.30;;;;;;;17.85;61.97;100368.97;5107656;28;20063;-67
2022/05/12 01:44:46;;;;;;;12.90;5.35;;;;;;;17.91;62.19;100391.03;5103822;28;20050;-67
2022/05/12 01:47:15;;;;;;;9.77;3.95;;;;;;;17.87;61.90;100375.09;5110160;28;20123;-67
2022/05/12 01:49:42;;;;;;;14.32;4.97;;;;;;;17.89;62.18;100387.72;5115397;27;20079;-66
2022/05/12 01:52:10;;;;;;;13.48;5.22;;;;;;;17.49;62.18;100333.38;5112154;27;20086;-66
2022/05/12 01:54:37;;;;;;;10.15;5.72;;;;;;;17.63;62.22;100367.09;5113262;27;20524;-67
2022/05/12 01:57:04;;;;;;;14.80;5.47;;;;;;;17.62;62.24;100371.91;5110222;28;20087;-67
2022/05/12 01:59:31;;;;;;;9.05;4.85;;;;;;;17.63;62.28;100379.22;5116909;27;20083;-67
2022/05/12 02:01:58;;;;;;;12.07;5.90;;;;;;;17.56;62.39;100373.25;5115537;28;20079;-68
2022/05/12 02:04:25;;;;;;;10.07;5.10;;;;;;;17.55;62.17;100371.59;5113524;27;20043;-68
2022/05/12 02:06:52;;;;;;;16.33;5.00;;;;;;;17.53;62.50;100362.59;5107663;28;20125;-68
2022/05/12 02:09:19;;;;;;;10.00;5.03;;;;;;;17.51;62.50;100365.78;5102966;28;20044;-68
2022/05/12 02:11:46;;;;;;;14.52;5.05;;;;;;;17.59;62.51;100363.28;5116659;28;20051;-71
2022/05/12 02:14:14;;;;;;;11.55;5.30;;;;;;;17.62;62.24;100360.63;5114743;27;20131;-71
2022/05/12 02:16:41;;;;;;;10.73;4.55;;;;;;;17.60;62.23;100365.75;5111819;28;20082;-70
2022/05/12 02:19:09;;;;;;;11.35;4.38;;;;;;;17.48;62.30;100338.22;5112199;28;20134;-70
2022/05/12 02:21:37;;;;;;;14.90;5.72;;;;;;;17.52;62.17;100341.19;5115531;27;20489;-69
2022/05/12 02:24:04;;;;;;;10.95;4.65;;;;;;;17.66;62.09;100363.63;5113836;27;20500;-70
2022/05/12 02:26:31;;;;;;;11.88;5.28;;;;;;;17.47;62.06;100335.69;5113366;27;20126;-71
2022/05/12 02:28:58;;;;;;;9.68;4.30;;;;;;;17.67;61.90;100371.75;5115532;28;20481;-69
2022/05/12 02:31:25;;;;;;;9.48;4.90;;;;;;;17.68;61.60;100370.59;5113827;27;20047;-69
2022/05/12 02:33:53;;;;;;;10.25;4.93;;;;;;;17.59;61.72;100354.81;5113067;28;20464;-69
2022/05/12 02:36:19;;;;;;;7.03;4.63;;;;;;;17.66;61.50;100377.72;5114008;28;20149;-69
2022/05/12 02:38:46;;;;;;;8.63;4.43;;;;;;;17.60;61.64;100370.59;5113567;28;20474;-69
2022/05/12 02:41:13;;;;;;;19.10;4.70;;;;;;;17.42;61.73;100359.28;5114579;27;20051;-69
2022/05/12 02:43:40;;;;;;;14.15;5.20;;;;;;;17.43;61.67;100374.22;5115340;27;20128;-70
2022/05/12 02:46:10;;;;;;;13.43;6.25;;;;;;;17.35;61.43;100367.44;5114814;28;20476;-69
2022/05/12 02:48:43;;;;;;;13.25;4.82;;;;;;;17.30;61.51;100376.06;5112672;27;20486;-69
2022/05/12 02:51:10;;;;;;;11.57;5.35;;;;;;;17.25;61.72;100371.41;5114677;27;20048;-68
2022/05/12 02:53:38;;;;;;;12.68;5.45;;;;;;;17.11;61.44;100345.31;5114379;27;20079;-68
2022/05/12 02:56:05;;;;;;;10.27;5.18;;;;;;;17.20;61.55;100365.91;5114271;27;20456;-68
2022/05/12 02:58:33;;;;;;;9.82;5.22;;;;;;;17.00;61.83;100341.16;5114073;28;20051;-68
2022/05/12 03:01:00;;;;;;;8.85;4.65;;;;;;;17.08;61.55;100367.72;5114223;27;20170;-67
2022/05/12 03:03:28;;;;;;;10.48;5.57;;;;;;;17.09;61.64;100375.00;5111444;27;20140;-68
2022/05/12 03:05:55;;;;;;;15.65;5.25;;;;;;;17.00;61.49;100366.53;5109321;27;20079;-67
2022/05/12 03:08:23;;;;;;;11.35;5.32;;;;;;;17.05;61.09;100366.38;5112063;27;20086;-68
2022/05/12 03:10:51;;;;;;;9.13;5.60;;;;;;;17.02;61.30;100364.22;5113313;27;20127;-68
2022/05/12 03:13:19;;;;;;;13.15;6.18;;;;;;;17.08;61.00;100370.53;5115231;27;20138;-69
2022/05/12 03:15:46;;;;;;;16.95;5.25;;;;;;;16.97;61.21;100347.44;5103829;28;20445;-68
2022/05/12 03:18:13;;;;;;;9.07;5.30;;;;;;;16.97;61.33;100358.75;5112267;27;20039;-67
2022/05/12 03:20:40;;;;;;;10.05;5.68;;;;;;;16.97;61.53;100368.03;5107174;28;20097;-69
2022/05/12 03:23:07;;;;;;;16.02;5.10;;;;;;;16.77;62.06;100355.34;5113708;27;20087;-69
2022/05/12 03:25:35;;;;;;;13.02;5.63;;;;;;;16.83;62.62;100374.97;5113806;27;20079;-68
2022/05/12 03:28:02;;;;;;;12.70;5.03;;;;;;;16.87;61.92;100361.88;5113715;28;20142;-68
2022/05/12 03:30:29;;;;;;;9.82;5.45;;;;;;;16.98;61.76;100366.03;5125771;27;20070;-68
2022/05/12 03:32:56;;;;;;;13.38;5.30;;;;;;;17.00;62.07;100358.09;5113259;27;20056;-66
2022/05/12 03:35:23;;;;;;;13.95;5.10;;;;;;;17.15;62.10;100368.88;5112550;27;20519;-66
2022/05/12 03:37:50;;;;;;;11.35;5.38;;;;;;;17.03;61.50;100348.97;5110552;27;20070;-66
2022/05/12 03:40:17;;;;;;;10.30;5.72;;;;;;;17.07;61.48;100347.16;5110128;27;20190;-65
2022/05/12 03:42:45;;;;;;;9.50;5.32;;;;;;;17.20;61.46;100365.09;5112703;28;20402;-66
2022/05/12 03:45:13;;;;;;;12.95;5.15;;;;;;;17.19;61.57;100363.41;5111212;27;20062;-67
2022/05/12 03:47:48;;;;;;;12.65;5.00;;;;;;;17.13;61.89;100364.72;5112829;28;20075;-66
2022/05/12 03:50:19;;;;;;;9.95;5.07;;;;;;;17.06;61.57;100353.97;5111483;28;20052;-66
2022/05/12 03:52:48;;;;;;;10.65;5.18;;;;;;;16.91;61.53;100331.84;5114438;28;20071;-68
2022/05/12 03:55:17;;;;;;;12.80;5.68;;;;;;;17.00;61.95;100358.09;5113797;28;20126;-67
2022/05/12 03:57:45;;;;;;;7.90;4.32;;;;;;;16.91;61.89;100340.31;5112440;28;20139;-67
2022/05/12 04:00:18;;;;;;;8.75;4.65;;;;;;;16.94;61.89;100350.94;5112936;27;20079;-67
2022/05/12 04:02:46;;;;;;;15.50;5.43;;;;;;;16.77;62.09;100332.81;5109377;27;20043;-66
2022/05/12 04:05:14;;;;;;;12.20;6.25;;;;;;;16.76;62.29;100330.31;5107351;27;20092;-66
2022/05/12 04:07:48;;;;;;;8.65;4.78;;;;;;;16.85;61.94;100347.25;5112152;28;20454;-66
2022/05/12 04:10:15;;;;;;;15.60;5.00;;;;;;;16.80;62.35;100348.25;5113087;27;20478;-67
2022/05/12 04:12:42;;;;;;;7.78;5.03;;;;;;;16.70;61.99;100335.25;5111199;27;20071;-67
2022/05/12 04:15:10;;;;;;;12.02;4.78;;;;;;;16.80;61.69;100351.88;5110632;28;20134;-67
2022/05/12 04:17:37;;;;;;;10.63;5.28;;;;;;;16.79;61.54;100347.41;5141914;27;20340;-67
2022/05/12 04:20:06;;;;;;;11.70;4.68;;;;;;;16.76;61.84;100345.25;5112026;28;20138;-67
2022/05/12 04:22:33;;;;;;;15.65;5.80;;;;;;;16.93;61.74;100371.84;5113123;27;20051;-67
2022/05/12 04:25:00;;;;;;;14.52;4.70;;;;;;;16.91;61.92;100366.50;5113961;27;20048;-67
2022/05/12 04:27:27;;;;;;;10.65;4.65;;;;;;;16.74;62.39;100374.88;5092826;28;20074;-67
2022/05/12 04:29:54;;;;;;;10.30;4.07;;;;;;;16.45;62.57;100344.44;5145120;27;20505;-67
2022/05/12 04:32:21;;;;;;;7.13;3.85;;;;;;;16.52;63.39;100367.34;5112679;28;20082;-67
2022/05/12 04:37:35;;;;;;;10.15;4.10;;;;;;;16.31;63.49;100356.66;5113038;28;20442;-67
2022/05/12 04:40:06;;;;;;;6.03;3.28;;;;;;;16.33;64.13;100368.41;5112373;27;20530;-67
2022/05/12 04:42:33;;;;;;;8.30;3.60;;;;;;;16.26;64.22;100368.03;5112821;28;20135;-67
2022/05/12 04:45:01;;;;;;;12.83;4.10;;;;;;;16.21;64.04;100362.56;5111511;27;20082;-68
2022/05/12 04:47:28;;;;;;;10.05;4.03;;;;;;;16.28;63.78;100360.13;5111857;27;20100;-69
2022/05/12 04:49:56;;;;;;;8.25;4.38;;;;;;;16.37;63.66;100364.94;5111758;28;20442;-67
2022/05/12 04:52:23;;;;;;;9.23;4.60;;;;;;;16.28;64.00;100351.66;5111575;28;20146;-69
2022/05/12 04:54:50;;;;;;;7.65;3.97;;;;;;;16.43;63.93;100363.66;5111821;28;20513;-67
2022/05/12 04:57:17;;;;;;;8.18;4.47;;;;;;;16.41;63.83;100365.97;5109642;28;20051;-67
2022/05/12 04:59:49;;;;;;;11.65;4.32;;;;;;;16.48;63.82;100367.19;5110302;28;20062;-71
2022/05/12 05:02:16;;;;;;;12.45;4.47;;;;;;;16.45;63.18;100356.53;5112113;28;20050;-69
2022/05/12 05:04:43;;;;;;;7.25;4.28;;;;;;;16.61;63.70;100370.19;5110104;28;20489;-70
2022/05/12 05:07:12;;;;;;;8.52;4.07;;;;;;;16.51;63.28;100360.03;5112126;28;20131;-70
2022/05/12 05:09:40;;;;;;;8.68;5.00;;;;;;;16.64;62.89;100364.72;5111312;28;20122;-70
2022/05/12 05:12:07;;;;;;;13.05;4.53;;;;;;;16.71;62.90;100367.91;5104211;28;20048;-67
2022/05/12 05:14:34;;;;;;;10.05;4.50;;;;;;;16.87;62.47;100367.50;5110403;28;20071;-69
2022/05/12 05:17:01;;;;;;;10.57;4.82;;;;;;;16.84;62.50;100348.41;5112692;28;20067;-69
2022/05/12 05:19:28;;;;;;;14.13;5.22;;;;;;;16.89;62.24;100348.25;5103216;28;20044;-68
2022/05/12 05:21:55;;;;;;;9.68;4.53;;;;;;;16.86;62.19;100346.13;5113455;28;20083;-67
2022/05/12 05:24:23;;;;;;;12.23;5.30;;;;;;;16.88;62.53;100353.06;5116021;28;20147;-67
2022/05/12 05:26:49;;;;;;;9.80;4.80;;;;;;;16.96;62.24;100359.91;5111181;27;20090;-67
2022/05/12 05:29:16;;;;;;;12.18;5.68;;;;;;;17.09;62.33;100373.03;5114543;27;20079;-68
2022/05/12 05:31:43;;;;;;;9.43;4.45;;;;;;;16.91;62.33;100346.78;5106309;27;20040;-68
2022/05/12 05:34:10;;;;;;;12.93;3.90;;;;;;;17.04;62.66;100378.84;5113871;27;20570;-68
2022/05/12 05:36:40;;;;;;;14.85;4.82;;;;;;;16.97;62.54;100364.38;5109992;27;20039;-68
2022/05/12 05:39:07;;;;;;;;;;;;;;;17.08;62.36;100379.84;5112064;27;20464;-68
2022/05/12 05:41:36;;;;;;;12.45;4.35;;;;;;;17.16;62.30;100387.50;5110064;28;19973;-68
2022/05/12 05:44:03;;;;;;;11.13;4.17;;;;;;;17.10;62.34;100376.69;5100663;28;20079;-68
2022/05/12 05:46:30;;;;;;;8.73;4.53;;;;;;;17.00;62.43;100375.00;5110482;28;20678;-68
2022/05/12 05:48:57;;;;;;;9.82;4.30;;;;;;;16.98;62.56;100374.50;5105769;28;20043;-69
2022/05/12 05:54:09;;;;;;;8.35;4.78;;;;;;;17.01;62.46;100371.84;5106082;27;20112;-69
2022/05/12 05:56:36;;;;;;;11.07;5.05;;;;;;;17.07;61.97;100383.00;5111893;28;20048;-68
2022/05/12 05:59:03;;;;;;;10.27;5.45;;;;;;;17.09;62.34;100384.31;5111320;28;20533;-69
2022/05/12 06:01:30;;;;;;;10.88;5.72;;;;;;;17.22;62.08;100402.25;5111729;28;20079;-68
2022/05/12 06:03:58;;;;;;;12.75;6.68;;;;;;;17.23;62.13;100409.56;5112952;28;20044;-68
2022/05/12 06:06:24;;;;;;;14.55;5.20;;;;;;;17.24;62.20;100395.13;5108530;27;20044;-68
2022/05/12 06:08:52;;;;;;;10.93;5.53;;;;;;;17.31;62.12;100396.66;5111652;27;20774;-69
2022/05/12 06:11:19;;;;;;;14.27;5.35;;;;;;;17.20;62.33;100411.06;5114216;28;20101;-69
2022/05/12 06:13:48;;;;;;;15.90;5.95;;;;;;;17.15;62.32;100413.22;5115763;27;20452;-68
2022/05/12 06:16:15;;;;;;;8.93;5.13;;;;;;;17.00;62.06;100403.22;5115536;28;20075;-69
2022/05/12 06:18:42;;;;;;;10.63;5.32;;;;;;;17.08;62.47;100430.63;5115721;28;20796;-70
2022/05/12 06:21:12;;;;;;;9.60;5.53;;;;;;;17.06;62.44;100424.50;5114580;28;20052;-69
2022/05/12 06:23:39;;;;;;;16.10;5.32;;;;;;;17.17;62.44;100436.28;5114657;27;20542;-70
2022/05/12 06:26:13;;;;;;;13.43;4.80;;;;;;;17.02;61.91;100413.00;5111063;28;20072;-69
2022/05/12 06:28:45;;;;;;;13.63;5.75;;;;;;;17.07;62.58;100426.13;5108559;27;20051;-68
2022/05/12 06:31:15;;;;;;;11.40;4.90;;;;;;;17.13;62.45;100429.63;5114359;27;20093;-69
2022/05/12 06:33:42;;;;;;;;;;;;;;;17.05;62.65;100419.97;5114623;28;20040;-68
2022/05/12 06:36:09;;;;;;;5.95;4.28;;;;;;;17.24;62.04;100429.00;5112099;27;20010;-69
2022/05/12 06:38:36;;;;;;;15.15;5.32;;;;;;;17.34;62.08;100433.50;5114769;27;20112;-69
2022/05/12 06:41:04;;;;;;;12.00;6.63;;;;;;;17.31;62.29;100417.22;5113419;27;20510;-69
2022/05/12 06:43:31;;;;;;;15.18;6.75;;;;;;;17.36;62.17;100427.53;5110721;27;20134;-67
2022/05/12 06:45:58;;;;;;;14.02;6.97;;;;;;;17.36;62.36;100428.34;5107468;27;20455;-68
2022/05/12 06:48:25;;;;;;;9.88;5.03;;;;;;;17.44;61.99;100426.72;5114411;28;20398;-68
2022/05/12 06:50:53;;;;;;;13.25;6.82;;;;;;;17.67;62.09;100453.63;5114574;28;20502;-69
2022/05/12 06:53:21;;;;;;;12.80;6.30;;;;;;;17.85;61.61;100453.72;5115459;28;20126;-68
2022/05/12 06:55:48;;;;;;;10.80;5.65;;;;;;;17.81;61.42;100418.78;5109428;28;20044;-68
2022/05/12 06:58:17;;;;;;;8.55;5.57;;;;;;;18.39;60.95;100455.00;5112525;28;20128;-69
2022/05/12 07:00:45;;;;;;;13.85;5.50;;;;;;;18.66;60.42;100428.28;5109849;28;20071;-69
2022/05/12 07:03:13;;;;;;;16.25;8.55;;;;;;;19.06;60.18;100442.13;5111572;28;20089;-70
2022/05/12 07:05:41;;;;;;;8.43;6.32;;;;;;;19.55;59.41;100453.81;5119532;27;20040;-70
2022/05/12 07:08:09;;;;;;;10.02;6.05;;;;;;;19.87;59.02;100451.47;5108226;28;20051;-68
2022/05/12 07:10:36;;;;;;;15.27;5.55;;;;;;;20.09;58.08;100433.25;5103253;28;20083;-69
2022/05/12 07:13:04;;;;;;;13.95;6.03;;;;;;;20.50;58.02;100457.91;5111501;27;20526;-65
2022/05/12 07:15:31;;;;;;;9.18;4.78;;;;;;;20.79;57.28;100445.56;5114152;28;20055;-66
2022/05/12 07:17:59;;;;;;;10.70;5.95;;;;;;;21.14;56.67;100452.81;5111894;28;20090;-66
2022/05/12 07:28:45;;;;;;;11.02;5.43;;;;;;;22.92;53.38;100446.81;5110209;28;20043;-69
2022/05/12 07:31:12;;;;;;;7.57;4.80;;;;;;;23.29;52.57;100451.41;5114520;28;20185;-68
2022/05/12 07:33:41;;;;;;;9.70;5.53;;;;;;;23.41;51.95;100432.16;5112456;28;20081;-70
2022/05/12 07:36:22;;;;;;;13.85;5.55;;;;;;;23.72;51.34;100458.97;5104471;27;20113;-66
2022/05/12 07:38:49;;;;;;;12.57;5.13;;;;;;;23.65;51.47;100464.47;5110762;27;20139;-66
2022/05/12 07:41:17;;;;;;;17.02;6.38;;;;;;;23.96;50.45;100455.03;5105963;28;20079;-65
2022/05/12 07:43:45;;;;;;;9.00;5.30;;;;;;;24.01;50.20;100451.06;5105524;28;20493;-67
2022/05/12 07:46:15;;;;;;;11.55;4.88;;;;;;;23.73;50.37;100437.84;5108956;28;20094;-67
2022/05/12 07:48:42;;;;;;;11.13;5.20;;;;;;;23.84;50.19;100446.63;5107988;28;20055;-66
2022/05/12 07:51:09;;;;;;;9.98;5.43;;;;;;;24.15;49.16;100451.38;5107781;27;20071;-65
2022/05/12 07:53:37;;;;;;;7.65;5.00;;;;;;;24.42;48.52;100451.56;5108885;27;20160;-67
2022/05/12 07:56:07;;;;;;;15.13;4.97;;;;;;;24.62;48.11;100443.78;5105303;27;20124;-66
2022/05/12 07:58:34;;;;;;;12.98;4.55;;;;;;;24.83;47.50;100447.84;5105844;27;20136;-66
2022/05/12 08:01:01;;;;;;;13.63;5.57;;;;;;;24.82;47.38;100449.06;5107560;28;20094;-66
2022/05/12 08:03:29;;;;;;;14.70;6.20;;;;;;;24.78;47.32;100453.88;5104696;27;20138;-66
2022/05/12 08:05:58;;;;;;;16.40;6.45;;;;;;;24.85;46.83;100455.22;5106338;27;20158;-66
2022/05/12 08:08:24;;;;;;;13.43;6.55;;;;;;;24.94;46.75;100472.94;5110901;28;20050;-66
2022/05/12 08:10:51;;;;;;;16.50;6.55;;;;;;;25.09;46.74;100463.41;5103457;28;20126;-65
2022/05/12 08:13:18;;;;;;;9.82;5.95;;;;;;;25.09;46.14;100411.97;5113158;27;20146;-66
2022/05/12 08:15:47;;;;;;;12.32;6.40;;;;;;;25.59;45.70;100460.56;5105471;28;20560;-66
2022/05/12 08:18:21;;;;;;;16.00;6.15;;;;;;;25.68;45.54;100438.25;5111509;27;20130;-65
2022/05/12 08:20:49;;;;;;;16.55;7.57;;;;;;;25.99;44.77;100446.47;5110792;27;20525;-66
2022/05/12 08:23:16;;;;;;;13.75;7.35;;;;;;;26.29;44.23;100461.97;5108732;27;20082;-67
2022/05/12 08:25:44;;;;;;;12.63;6.70;;;;;;;26.28;43.53;100438.25;5106811;28;20135;-66
2022/05/12 08:28:17;;;;;;;11.32;6.13;;;;;;;26.41;43.21;100468.28;5107036;28;20525;-67
2022/05/12 08:30:46;;;;;;;11.85;5.13;;;;;;;26.48;42.79;100461.03;5111098;28;20461;-66
2022/05/12 08:33:13;;;;;;;11.83;5.87;;;;;;;26.52;42.88;100451.25;5109501;28;20131;-66
2022/05/12 08:35:42;;;;;;;14.57;6.10;;;;;;;26.66;42.23;100442.81;5108882;28;20362;-67
2022/05/12 08:38:10;;;;;;;10.68;5.97;;;;;;;27.00;42.15;100474.25;5109216;27;20139;-66
2022/05/12 08:40:58;;;;;;;10.88;5.07;;;;;;;27.21;41.85;100464.22;5109179;27;20066;-67
2022/05/12 08:43:36;;;;;;;9.73;4.78;;;;;;;27.59;40.92;100458.00;5124501;27;20079;-67
2022/05/12 08:46:08;;;;;;;7.65;4.80;;;;;;;27.68;40.11;100451.91;5111831;27;20134;-66
2022/05/12 08:48:42;;;;;;;11.55;5.90;;;;;;;27.70;39.79;100451.50;5106718;28;20043;-67
2022/05/12 08:51:12;;;;;;;13.80;5.40;;;;;;;27.94;39.16;100441.44;5109248;28;20083;-64
2022/05/12 08:54:03;;;;;;;13.10;5.40;;;;;;;28.09;39.26;100454.63;5104864;28;20040;-66
2022/05/12 08:56:32;;;;;;;13.40;5.45;;;;;;;28.32;38.61;100460.06;5104203;28;20561;-67
2022/05/12 08:59:00;;;;;;;13.43;6.55;;;;;;;28.60;38.26;100453.63;5104806;28;20497;-66
2022/05/12 09:02:10;;;;;;;11.80;4.78;;;;;;;29.03;37.90;100457.44;5106274;28;20047;-66
2022/05/12 09:04:52;;;;;;;16.15;5.35;;;;;;;29.28;37.87;100465.25;5106045;28;20100;-65
2022/05/12 09:07:27;;;;;;;9.45;4.53;;;;;;;29.40;36.94;100473.47;5109621;28;20147;-66
2022/05/12 09:10:06;;;;;;;10.40;6.00;;;;;;;29.45;36.13;100467.28;5111305;28;20086;-66
2022/05/12 09:12:59;;;;;;;14.23;4.90;;;;;;;29.18;35.78;100475.50;5108646;28;20075;-65
2022/05/12 09:15:31;;;;;;;12.45;4.95;;;;;;;28.65;35.88;100458.97;5110557;28;20055;-68
2022/05/12 09:18:02;;;;;;;9.40;5.03;;;;;;;28.32;36.40;100477.28;5111349;28;20047;-65
2022/05/12 09:20:32;;;;;;;13.00;5.50;;;;;;;28.04;36.56;100469.38;5109994;28;20090;-66
2022/05/12 09:23:00;;;;;;;10.93;4.68;;;;;;;27.99;36.19;100473.44;5109910;28;20134;-64
2022/05/12 09:25:29;;;;;;;12.25;5.47;;;;;;;28.20;35.93;100454.66;5109727;28;20069;-65
2022/05/12 09:27:58;;;;;;;14.18;5.32;;;;;;;28.51;35.73;100464.66;5110811;28;20082;-66
2022/05/12 09:30:36;;;;;;;15.10;5.18;;;;;;;28.76;35.80;100459.00;5113840;28;20081;-66
2022/05/12 09:33:03;;;;;;;12.80;5.75;;;;;;;28.77;36.10;100472.94;5109601;28;20569;-66
2022/05/12 09:35:31;;;;;;;12.10;5.28;;;;;;;28.83;36.00;100469.69;5109399;28;20078;-66
2022/05/12 09:37:58;;;;;;;14.82;5.97;;;;;;;28.87;35.38;100474.22;5104462;28;20135;-65
2022/05/12 09:40:39;;;;;;;13.68;5.57;;;;;;;29.03;35.57;100471.81;5103080;28;20043;-66
2022/05/12 09:43:24;;;;;;;13.18;5.40;;;;;;;29.13;35.52;100469.31;5105119;28;20088;-66
2022/05/12 09:46:05;;;;;;;13.65;5.25;;;;;;;29.08;35.14;100469.75;5102050;28;20086;-65
2022/05/12 09:48:35;;;;;;;6.28;3.42;;;;;;;29.03;33.19;100460.31;5109938;28;20134;-66
2022/05/12 09:51:21;;;;;;;9.75;4.32;;;;;;;28.78;33.60;100456.53;5108372;28;20408;-66
2022/05/12 09:53:51;;;;;;;13.30;4.50;;;;;;;28.55;32.79;100457.72;5106758;28;20039;-65
2022/05/12 09:56:39;;;;;;;9.63;3.83;;;;;;;28.53;33.47;100463.03;5107785;28;20106;-65
2022/05/12 09:59:15;;;;;;;7.55;3.28;;;;;;;28.58;33.54;100465.53;5107182;28;20109;-66
2022/05/12 10:08:25;;;;;;;11.95;3.17;;;;;;;28.38;32.09;100480.56;5111637;27;20079;-66
2022/05/12 10:10:57;;;;;;;8.18;3.67;;;;;;;28.42;31.37;100481.47;5111219;27;20048;-65
2022/05/12 10:13:50;;;;;;;6.00;2.60;;;;;;;28.56;30.33;100485.22;5113282;28;20047;-66
2022/05/12 10:16:23;;;;;;;7.30;3.15;;;;;;;28.53;30.20;100480.28;5113793;28;20043;-65
2022/05/12 10:18:56;;;;;;;5.30;3.15;;;;;;;28.65;30.54;100486.88;5114628;28;20051;-65
2022/05/12 10:21:28;;;;;;;8.60;4.07;;;;;;;28.72;30.86;100481.16;5112056;27;20226;-65
2022/05/12 10:24:07;;;;;;;9.75;3.70;;;;;;;28.89;30.82;100494.75;5108074;27;20047;-65
2022/05/12 10:26:41;;;;;;;9.43;3.92;;;;;;;28.98;30.55;100492.28;5106866;27;20478;-66
2022/05/12 10:29:45;;;;;;;5.90;3.25;;;;;;;29.17;30.77;100493.19;5110065;28;20059;-65
2022/05/12 10:32:44;;;;;;;6.22;2.78;;;;;;;29.35;30.46;100491.13;5090232;27;20075;-65
2022/05/12 10:35:22;;;;;;;6.22;3.28;;;;;;;29.56;30.35;100495.22;5105465;28;20493;-65
2022/05/12 10:37:57;;;;;;;7.95;2.42;;;;;;;29.42;30.00;100501.81;5107569;28;20431;-67
2022/05/12 10:40:43;;;;;;;8.43;3.22;;;;;;;29.22;29.19;100495.63;5110617;27;20482;-66
2022/05/12 10:43:37;;;;;;;6.95;2.92;;;;;;;29.61;29.42;100510.06;5109177;27;20050;-65
2022/05/12 10:46:13;;;;;;;7.78;3.10;;;;;;;30.03;28.86;100528.50;5106414;27;20051;-65
2022/05/12 10:49:10;;;;;;;8.70;3.67;;;;;;;30.20;29.67;100518.22;5109059;27;20048;-65
2022/05/12 10:51:44;;;;;;;16.58;7.53;;;;;;;30.25;30.46;100520.66;5110823;27;20131;-65
2022/05/12 10:54:38;;;;;;;17.90;7.63;;;;;;;30.28;31.56;100510.38;5108472;28;20455;-66
2022/05/12 10:57:05;;;;;;;13.95;6.95;;;;;;;30.22;32.17;100533.00;5112699;28;20443;-66
2022/05/12 10:59:45;;;;;;;18.85;8.27;;;;;;;30.04;32.34;100509.16;5111576;28;20485;-65
2022/05/12 11:02:39;;;;;;;18.05;9.00;;;;;;;30.32;32.52;100529.28;5109591;28;20127;-66
2022/05/12 11:05:27;;;;;;;18.55;9.23;;;;;;;30.02;33.14;100526.03;5110320;28;20082;-65
2022/05/12 11:08:00;;;;;;;21.08;7.00;;;;;;;30.19;33.39;100528.09;5111222;28;20054;-65
2022/05/12 11:10:30;;;;;;;22.42;8.68;;;;;;;30.52;32.84;100523.03;5109306;28;20538;-67
2022/05/12 11:13:24;;;;;;;17.52;7.60;;;;;;;30.66;32.91;100499.91;5125070;27;20126;-64
2022/05/12 11:16:15;;;;;;;19.60;8.15;;;;;;;30.64;32.70;100523.38;5106058;28;20074;-65
2022/05/12 11:18:51;;;;;;;20.38;8.38;;;;;;;30.75;33.01;100514.69;5109674;27;20047;-65
2022/05/12 11:21:29;;;;;;;16.33;7.15;;;;;;;30.87;33.04;100531.56;5108642;28;22963;-65
2022/05/12 11:24:21;;;;;;;16.20;7.47;;;;;;;30.83;32.79;100524.97;5107930;27;20130;-65
2022/05/12 11:27:21;;;;;;;18.30;8.60;;;;;;;30.55;32.60;100516.44;5102752;27;20051;-65
2022/05/12 11:30:02;;;;;;;19.40;7.35;;;;;;;30.38;33.36;100498.78;5107083;27;20718;-64
2022/05/12 11:33:10;;;;;;;13.85;7.40;;;;;;;30.84;32.47;100520.03;5110159;27;20147;-65
2022/05/12 11:35:45;;;;;;;17.25;7.20;;;;;;;31.35;32.55;100516.44;5091909;28;20056;-65
2022/05/12 11:38:40;;;;;;;13.80;7.10;;;;;;;31.82;32.56;100533.31;5105766;28;20550;-66
2022/05/12 11:41:32;;;;;;;15.43;6.47;;;;;;;32.16;32.15;100533.41;5109064;28;20098;-66
2022/05/12 11:44:24;;;;;;;16.83;7.35;;;;;;;32.00;32.26;100536.06;5109177;28;20075;-65
2022/05/12 11:47:20;;;;;;;16.35;7.85;;;;;;;31.59;31.91;100534.78;5112325;28;20039;-66
2022/05/12 11:50:04;;;;;;;16.27;7.93;;;;;;;31.48;31.80;100536.09;5107800;28;20130;-65
2022/05/12 11:52:49;;;;;;;17.90;7.45;;;;;;;31.45;31.78;100545.59;5112912;28;20513;-65
2022/05/12 11:55:31;;;;;;;15.65;7.70;;;;;;;31.66;31.89;100533.91;5111452;28;20139;-65
2022/05/12 11:58:12;;;;;;;15.10;7.15;;;;;;;32.19;31.16;100535.44;5112649;28;20126;-65
2022/05/12 12:00:43;;;;;;;14.25;7.43;;;;;;;32.39;30.40;100552.97;5109010;28;20134;-66